createdAt,value
2022-08-20T00:00:30.211Z,0
2022-08-20T00:01:46.519Z,0
2022-08-20T00:03:02.797Z,0
2022-08-20T00:04:19.108Z,0
2022-08-20T00:05:35.401Z,0
2022-08-20T00:06:51.695Z,0
2022-08-20T00:08:07.987Z,0
2022-08-20T00:09:24.266Z,0
2022-08-20T00:10:40.570Z,0
2022-08-20T00:13:13.152Z,0
2022-08-20T00:14:28.462Z,0
2022-08-20T00:15:44.754Z,0
2022-08-20T00:17:01.060Z,0
2022-08-20T00:18:17.351Z,0
2022-08-20T00:19:33.643Z,0
2022-08-20T00:20:49.942Z,0
2022-08-20T00:22:06.233Z,0
2022-08-20T00:23:22.521Z,0
2022-08-20T00:24:38.816Z,0
2022-08-20T00:25:55.107Z,0
2022-08-20T00:27:11.405Z,0
2022-08-20T00:28:27.704Z,0
2022-08-20T00:29:43.985Z,0
2022-08-20T00:30:59.302Z,0
2022-08-20T00:32:15.597Z,0
2022-08-20T00:33:31.886Z,0
2022-08-20T00:34:48.189Z,0
2022-08-20T00:36:04.482Z,0
2022-08-20T00:37:20.784Z,0
2022-08-20T00:38:37.064Z,0
2022-08-20T00:39:53.354Z,0
2022-08-20T00:41:09.660Z,0
2022-08-20T00:42:25.943Z,0
2022-08-20T00:43:42.239Z,0
2022-08-20T00:44:58.547Z,0
2022-08-20T00:46:14.831Z,0
2022-08-20T00:47:30.151Z,0
2022-08-20T00:48:46.439Z,0
2022-08-20T00:50:02.728Z,0
2022-08-20T00:51:19.014Z,0
2022-08-20T00:52:35.312Z,0
2022-08-20T00:53:51.601Z,0
2022-08-20T00:55:07.911Z,0
2022-08-20T00:56:24.193Z,0
2022-08-20T00:57:40.489Z,0
2022-08-20T00:58:56.792Z,0
2022-08-20T01:00:13.093Z,0
2022-08-20T01:01:29.368Z,0
2022-08-20T01:02:45.677Z,0
2022-08-20T01:04:00.979Z,0
2022-08-20T01:05:17.280Z,0
2022-08-20T01:06:33.566Z,0
2022-08-20T01:07:49.872Z,0
2022-08-20T01:09:06.149Z,0
2022-08-20T01:10:22.447Z,0
2022-08-20T01:11:38.737Z,0
2022-08-20T01:12:55.033Z,0
2022-08-20T01:14:11.324Z,0
2022-08-20T01:15:27.625Z,0
2022-08-20T01:16:43.913Z,0
2022-08-20T01:18:00.210Z,0
2022-08-20T01:19:16.513Z,0
2022-08-20T01:21:48.103Z,0
2022-08-20T01:23:04.415Z,0
2022-08-20T01:24:20.691Z,0
2022-08-20T01:25:36.987Z,0
2022-08-20T01:26:53.296Z,0
2022-08-20T01:28:09.591Z,0
2022-08-20T01:29:25.867Z,0
2022-08-20T01:30:42.165Z,0
2022-08-20T01:31:58.468Z,0
2022-08-20T01:33:14.752Z,0
2022-08-20T01:34:31.046Z,0
2022-08-20T01:35:47.347Z,0
2022-08-20T01:37:02.657Z,0
2022-08-20T01:39:35.251Z,0
2022-08-20T01:40:51.545Z,0
2022-08-20T01:42:07.824Z,0
2022-08-20T01:43:24.127Z,0
2022-08-20T01:44:40.417Z,0
2022-08-20T01:45:56.721Z,0
2022-08-20T01:47:13.004Z,0
2022-08-20T01:48:29.312Z,0
2022-08-20T01:49:45.593Z,0
2022-08-20T01:51:01.900Z,0
2022-08-20T01:52:18.178Z,0
2022-08-20T01:53:33.494Z,0
2022-08-20T01:54:49.780Z,0
2022-08-20T01:56:06.083Z,0
2022-08-20T01:57:22.386Z,0
2022-08-20T01:59:54.975Z,0
2022-08-20T02:02:27.545Z,0
2022-08-20T02:03:42.873Z,0
2022-08-20T02:04:58.169Z,0
2022-08-20T02:06:14.475Z,0
2022-08-20T02:07:30.775Z,0
2022-08-20T02:08:47.061Z,0
2022-08-20T02:10:03.362Z,0
2022-08-20T02:11:19.643Z,0
2022-08-20T02:12:35.941Z,0
2022-08-20T02:13:52.233Z,0
2022-08-20T02:15:08.523Z,0
2022-08-20T02:16:24.833Z,0
2022-08-20T02:17:40.146Z,0
2022-08-20T02:18:55.456Z,0
2022-08-20T02:20:11.746Z,0
2022-08-20T02:21:28.039Z,0
2022-08-20T02:22:44.340Z,0
2022-08-20T02:25:16.922Z,0
2022-08-20T02:26:33.220Z,0
2022-08-20T02:27:49.505Z,0
2022-08-20T02:29:05.803Z,0
2022-08-20T02:30:22.092Z,0
2022-08-20T02:31:38.391Z,0
2022-08-20T02:32:54.693Z,0
2022-08-20T02:34:10.987Z,0
2022-08-20T02:35:26.295Z,0
2022-08-20T02:36:42.592Z,0
2022-08-20T02:37:58.876Z,0
2022-08-20T02:39:15.163Z,0
2022-08-20T02:40:31.455Z,0
2022-08-20T02:41:47.750Z,0
2022-08-20T02:43:04.059Z,0
2022-08-20T02:44:20.356Z,0
2022-08-20T02:45:36.639Z,0
2022-08-20T02:46:52.928Z,0
2022-08-20T02:48:09.225Z,0
2022-08-20T02:49:25.533Z,0
2022-08-20T02:50:41.826Z,0
2022-08-20T02:53:13.415Z,0
2022-08-20T02:54:29.709Z,0
2022-08-20T02:55:46.014Z,0
2022-08-20T02:58:18.602Z,0
2022-08-20T02:59:34.891Z,0
2022-08-20T03:00:51.176Z,0
2022-08-20T03:03:23.772Z,0
2022-08-20T03:04:39.088Z,0
2022-08-20T03:05:54.400Z,0
2022-08-20T03:08:26.009Z,0
2022-08-20T03:09:41.324Z,0
2022-08-20T03:10:57.629Z,0
2022-08-20T03:12:13.912Z,0
2022-08-20T03:13:30.205Z,0
2022-08-20T03:14:46.505Z,0
2022-08-20T03:16:02.799Z,0
2022-08-20T03:17:19.084Z,0
2022-08-20T03:18:35.382Z,0
2022-08-20T03:19:51.671Z,0
2022-08-20T03:21:07.972Z,0
2022-08-20T03:22:24.269Z,0
2022-08-20T03:23:40.555Z,0
2022-08-20T03:24:56.850Z,0
2022-08-20T03:26:12.157Z,0
2022-08-20T03:27:28.458Z,0
2022-08-20T03:28:44.761Z,0
2022-08-20T03:30:01.039Z,0
2022-08-20T03:31:17.346Z,0
2022-08-20T03:32:32.645Z,0
2022-08-20T03:33:47.971Z,0
2022-08-20T03:35:04.255Z,0
2022-08-20T03:36:20.552Z,0
2022-08-20T03:38:53.087Z,1
2022-08-20T03:40:09.339Z,1
2022-08-20T03:41:25.584Z,1
2022-08-20T03:42:41.825Z,1
2022-08-20T03:43:58.063Z,1
2022-08-20T03:45:14.300Z,2
2022-08-20T03:46:30.543Z,2
2022-08-20T03:47:46.772Z,2
2022-08-20T03:49:03.018Z,2
2022-08-20T03:50:18.278Z,3
2022-08-20T03:51:34.524Z,3
2022-08-20T03:52:50.753Z,6
2022-08-20T03:54:06.998Z,5
2022-08-20T03:55:23.231Z,5
2022-08-20T03:56:39.474Z,10
2022-08-20T03:57:55.725Z,10
2022-08-20T03:59:11.960Z,13
2022-08-20T04:00:28.196Z,13
2022-08-20T04:01:44.426Z,18
2022-08-20T04:03:00.682Z,20
2022-08-20T04:04:16.911Z,22
2022-08-20T04:05:33.159Z,22
2022-08-20T04:06:48.414Z,27
2022-08-20T04:08:04.642Z,32
2022-08-20T04:09:20.890Z,31
2022-08-20T04:10:37.134Z,34
2022-08-20T04:11:53.380Z,40
2022-08-20T04:13:09.616Z,43
2022-08-20T04:14:25.844Z,50
2022-08-20T04:15:42.085Z,52
2022-08-20T04:16:58.332Z,58
2022-08-20T04:18:14.579Z,66
2022-08-20T04:19:30.816Z,73
2022-08-20T04:20:47.052Z,84
2022-08-20T04:22:03.285Z,85
2022-08-20T04:24:34.793Z,112
2022-08-20T04:25:51.039Z,126
2022-08-20T04:27:07.269Z,151
2022-08-20T04:28:23.507Z,165
2022-08-20T04:29:39.740Z,172
2022-08-20T04:30:55.987Z,187
2022-08-20T04:32:12.238Z,203
2022-08-20T04:33:28.478Z,221
2022-08-20T04:34:44.699Z,242
2022-08-20T04:36:00.947Z,255
2022-08-20T04:37:17.188Z,265
2022-08-20T04:39:49.663Z,261
2022-08-20T04:41:04.929Z,253
2022-08-20T04:42:21.167Z,250
2022-08-20T04:44:53.654Z,250
2022-08-20T04:47:25.144Z,252
2022-08-20T04:48:40.405Z,257
2022-08-20T04:49:55.657Z,245
2022-08-20T04:51:11.898Z,246
2022-08-20T04:52:28.139Z,240
2022-08-20T04:53:44.393Z,251
2022-08-20T04:55:00.625Z,275
2022-08-20T04:56:16.874Z,298
2022-08-20T04:57:33.112Z,308
2022-08-20T04:58:49.349Z,325
2022-08-20T05:00:05.579Z,335
2022-08-20T05:02:38.075Z,443
2022-08-20T05:03:54.316Z,420
2022-08-20T05:05:10.550Z,433
2022-08-20T05:06:25.801Z,414
2022-08-20T05:07:42.040Z,453
2022-08-20T05:08:58.279Z,486
2022-08-20T05:10:14.530Z,503
2022-08-20T05:11:30.771Z,502
2022-08-20T05:12:47.008Z,513
2022-08-20T05:14:03.236Z,534
2022-08-20T05:15:19.477Z,546
2022-08-20T05:16:34.750Z,551
2022-08-20T05:17:50.000Z,512
2022-08-20T05:19:06.237Z,524
2022-08-20T05:20:22.475Z,524
2022-08-20T05:21:38.728Z,495
2022-08-20T05:22:54.971Z,570
2022-08-20T05:24:11.203Z,631
2022-08-20T05:25:27.448Z,724
2022-08-20T05:26:43.689Z,861
2022-08-20T05:27:59.922Z,789
2022-08-20T05:29:16.161Z,913
2022-08-20T05:30:32.411Z,1012
2022-08-20T05:31:48.634Z,1109
2022-08-20T05:33:04.884Z,1218
2022-08-20T05:34:20.132Z,1218
2022-08-20T05:35:36.381Z,1307
2022-08-20T05:36:52.609Z,1341
2022-08-20T05:38:08.866Z,1333
2022-08-20T05:39:25.089Z,1338
2022-08-20T05:40:41.343Z,1327
2022-08-20T05:41:57.578Z,1303
2022-08-20T05:43:13.815Z,1289
2022-08-20T05:44:30.058Z,1281
2022-08-20T05:45:46.292Z,1305
2022-08-20T05:47:02.543Z,1342
2022-08-20T05:48:18.788Z,1396
2022-08-20T05:49:35.026Z,1476
2022-08-20T05:50:50.265Z,1554
2022-08-20T05:52:06.506Z,1612
2022-08-20T05:53:22.751Z,1656
2022-08-20T05:54:38.994Z,1728
2022-08-20T05:55:55.231Z,1824
2022-08-20T05:57:11.474Z,1889
2022-08-20T05:58:27.722Z,1809
2022-08-20T05:59:43.965Z,1771
2022-08-20T06:01:00.199Z,1764
2022-08-20T06:02:16.429Z,1760
2022-08-20T06:03:32.683Z,1684
2022-08-20T06:04:48.922Z,1687
2022-08-20T06:06:05.158Z,1720
2022-08-20T06:07:20.417Z,1700
2022-08-20T06:08:36.652Z,1721
2022-08-20T06:09:52.902Z,1730
2022-08-20T06:11:09.141Z,1774
2022-08-20T06:12:25.379Z,1820
2022-08-20T06:13:41.619Z,1889
2022-08-20T06:14:57.860Z,1923
2022-08-20T06:16:14.103Z,2024
2022-08-20T06:17:30.341Z,2110
2022-08-20T06:18:46.570Z,2137
2022-08-20T06:20:02.819Z,2147
2022-08-20T06:21:19.052Z,2153
2022-08-20T06:22:35.295Z,2185
2022-08-20T06:23:50.556Z,2222
2022-08-20T06:26:23.027Z,2434
2022-08-20T06:27:39.266Z,2537
2022-08-20T06:28:55.503Z,2585
2022-08-20T06:30:11.754Z,2616
2022-08-20T06:31:27.992Z,2622
2022-08-20T06:32:44.243Z,2647
2022-08-20T06:34:00.478Z,2633
2022-08-20T06:35:16.720Z,2688
2022-08-20T06:36:32.954Z,2677
2022-08-20T06:37:49.202Z,2685
2022-08-20T06:39:05.432Z,2692
2022-08-20T06:40:20.696Z,2717
2022-08-20T06:41:36.921Z,2751
2022-08-20T06:42:53.161Z,2796
2022-08-20T06:44:09.413Z,2897
2022-08-20T06:45:25.648Z,3059
2022-08-20T06:46:41.888Z,3253
2022-08-20T06:47:58.139Z,3383
2022-08-20T06:49:14.362Z,3500
2022-08-20T06:50:30.618Z,3551
2022-08-20T06:51:46.862Z,3616
2022-08-20T06:53:03.089Z,3612
2022-08-20T06:54:19.330Z,3648
2022-08-20T06:56:51.806Z,3533
2022-08-20T06:59:23.311Z,3306
2022-08-20T07:00:39.559Z,3166
2022-08-20T07:01:55.792Z,3094
2022-08-20T07:03:12.022Z,2944
2022-08-20T07:04:28.282Z,2762
2022-08-20T07:05:44.508Z,2590
2022-08-20T07:07:00.750Z,2435
2022-08-20T07:08:17.002Z,2315
2022-08-20T07:09:33.231Z,2264
2022-08-20T07:12:05.715Z,2308
2022-08-20T07:13:20.965Z,2344
2022-08-20T07:14:36.222Z,2369
2022-08-20T07:15:52.460Z,2442
2022-08-20T07:17:08.720Z,2548
2022-08-20T07:18:24.947Z,2685
2022-08-20T07:19:41.201Z,2818
2022-08-20T07:20:57.419Z,2893
2022-08-20T07:22:13.674Z,2906
2022-08-20T07:23:29.920Z,2855
2022-08-20T07:24:45.182Z,2799
2022-08-20T07:26:01.414Z,2782
2022-08-20T07:27:16.667Z,2786
2022-08-20T07:28:31.941Z,2879
2022-08-20T07:29:48.163Z,3044
2022-08-20T07:31:04.410Z,3236
2022-08-20T07:32:20.654Z,3472
2022-08-20T07:33:36.895Z,3634
2022-08-20T07:34:53.133Z,3727
2022-08-20T07:36:09.372Z,3780
2022-08-20T07:37:25.618Z,3822
2022-08-20T07:38:41.851Z,3828
2022-08-20T07:39:58.088Z,3833
2022-08-20T07:41:14.339Z,3799
2022-08-20T07:42:30.576Z,3760
2022-08-20T07:43:46.822Z,3748
2022-08-20T07:45:02.072Z,3770
2022-08-20T07:46:18.298Z,3801
2022-08-20T07:47:34.559Z,3877
2022-08-20T07:48:50.782Z,3999
2022-08-20T07:50:07.038Z,4024
2022-08-20T07:51:23.268Z,4133
2022-08-20T07:52:39.505Z,4205
2022-08-20T07:53:55.741Z,4246
2022-08-20T07:55:11.998Z,4297
2022-08-20T07:56:28.227Z,4340
2022-08-20T07:57:44.478Z,4042
2022-08-20T07:59:00.719Z,4215
2022-08-20T08:00:16.943Z,4499
2022-08-20T08:01:32.209Z,4736
2022-08-20T08:02:48.440Z,4808
2022-08-20T08:04:04.696Z,4917
2022-08-20T08:05:20.935Z,4959
2022-08-20T08:06:37.170Z,5022
2022-08-20T08:07:53.407Z,5190
2022-08-20T08:09:09.649Z,5347
2022-08-20T08:10:25.882Z,5428
2022-08-20T08:11:42.134Z,5471
2022-08-20T08:12:58.371Z,5838
2022-08-20T08:14:14.615Z,5419
2022-08-20T08:15:30.843Z,5212
2022-08-20T08:16:47.080Z,5553
2022-08-20T08:18:02.341Z,5730
2022-08-20T08:20:34.826Z,6075
2022-08-20T08:21:51.060Z,6381
2022-08-20T08:23:07.298Z,6559
2022-08-20T08:24:23.557Z,6273
2022-08-20T08:25:39.793Z,6331
2022-08-20T08:26:56.027Z,6933
2022-08-20T08:28:12.257Z,7229
2022-08-20T08:29:28.516Z,6343
2022-08-20T08:30:44.754Z,5973
2022-08-20T08:33:17.237Z,5915
2022-08-20T08:34:32.487Z,6948
2022-08-20T08:35:48.718Z,7242
2022-08-20T08:37:04.954Z,6370
2022-08-20T08:38:21.198Z,6110
2022-08-20T08:39:37.452Z,7079
2022-08-20T08:40:53.695Z,6474
2022-08-20T08:42:09.926Z,6520
2022-08-20T08:43:26.165Z,6661
2022-08-20T08:44:42.399Z,7123
2022-08-20T08:45:58.654Z,7189
2022-08-20T08:47:14.877Z,6527
2022-08-20T08:48:31.130Z,6652
2022-08-20T08:49:47.361Z,7719
2022-08-20T08:51:02.612Z,7953
2022-08-20T08:52:18.870Z,7564
2022-08-20T08:53:35.094Z,6674
2022-08-20T08:54:51.337Z,6177
2022-08-20T08:56:07.572Z,6301
2022-08-20T08:57:23.816Z,6796
2022-08-20T08:58:40.057Z,6750
2022-08-20T08:59:56.292Z,5412
2022-08-20T09:01:12.541Z,7280
2022-08-20T09:02:28.790Z,7447
2022-08-20T09:03:45.025Z,7623
2022-08-20T09:05:01.264Z,7615
2022-08-20T09:06:17.512Z,7549
2022-08-20T09:07:33.737Z,7222
2022-08-20T09:08:48.995Z,7587
2022-08-20T09:10:05.240Z,7586
2022-08-20T09:11:21.474Z,7479
2022-08-20T09:12:37.724Z,6769
2022-08-20T09:13:53.970Z,7328
2022-08-20T09:15:10.205Z,7827
2022-08-20T09:16:26.431Z,8712
2022-08-20T09:17:42.687Z,8749
2022-08-20T09:18:58.922Z,9191
2022-08-20T09:20:15.153Z,7772
2022-08-20T09:21:31.409Z,8287
2022-08-20T09:22:47.635Z,8004
2022-08-20T09:24:03.881Z,7647
2022-08-20T09:25:19.141Z,7831
2022-08-20T09:26:35.376Z,8218
2022-08-20T09:27:51.616Z,8152
2022-08-20T09:29:07.851Z,8575
2022-08-20T09:30:24.106Z,8754
2022-08-20T09:31:40.334Z,9029
2022-08-20T09:32:56.578Z,8052
2022-08-20T09:34:12.819Z,8703
2022-08-20T09:35:29.062Z,8410
2022-08-20T09:36:45.306Z,8951
2022-08-20T09:38:01.548Z,8605
2022-08-20T09:39:17.783Z,8703
2022-08-20T09:40:34.013Z,8820
2022-08-20T09:41:49.279Z,9191
2022-08-20T09:43:05.524Z,9033
2022-08-20T09:44:21.761Z,8980
2022-08-20T09:45:38.001Z,8837
2022-08-20T09:46:54.236Z,8589
2022-08-20T09:48:10.480Z,8321
2022-08-20T09:49:26.708Z,7839
2022-08-20T09:50:42.965Z,7618
2022-08-20T09:51:59.194Z,7353
2022-08-20T09:54:31.668Z,7479
2022-08-20T09:55:47.918Z,7472
2022-08-20T09:57:04.156Z,7424
2022-08-20T09:58:19.418Z,7296
2022-08-20T09:59:35.653Z,7221
2022-08-20T10:00:51.895Z,7098
2022-08-20T10:02:08.142Z,7063
2022-08-20T10:03:24.369Z,7001
2022-08-20T10:04:40.624Z,6879
2022-08-20T10:07:13.085Z,6555
2022-08-20T10:08:29.339Z,6295
2022-08-20T10:09:45.577Z,6035
2022-08-20T10:11:01.810Z,5799
2022-08-20T10:12:18.055Z,5563
2022-08-20T10:13:34.293Z,5527
2022-08-20T10:14:49.548Z,5404
2022-08-20T10:16:05.800Z,5327
2022-08-20T10:17:22.026Z,5294
2022-08-20T10:18:38.281Z,5333
2022-08-20T10:19:54.511Z,5385
2022-08-20T10:21:10.751Z,5459
2022-08-20T10:22:26.989Z,5513
2022-08-20T10:23:43.221Z,5569
2022-08-20T10:24:59.482Z,5628
2022-08-20T10:26:15.000Z,5678
2022-08-20T10:27:31.944Z,5632
2022-08-20T10:30:04.426Z,5745
2022-08-20T10:31:19.688Z,5831
2022-08-20T10:32:35.926Z,5923
2022-08-20T10:33:52.177Z,5986
2022-08-20T10:35:08.415Z,6012
2022-08-20T10:36:24.639Z,6005
2022-08-20T10:37:40.888Z,5968
2022-08-20T10:38:57.121Z,5924
2022-08-20T10:40:13.380Z,5876
2022-08-20T10:41:29.620Z,5869
2022-08-20T10:42:45.844Z,5876
2022-08-20T10:44:02.097Z,5876
2022-08-20T10:45:18.330Z,5886
2022-08-20T10:46:34.576Z,5928
2022-08-20T10:47:49.837Z,6025
2022-08-20T10:49:06.070Z,6169
2022-08-20T10:50:22.310Z,6316
2022-08-20T10:52:54.780Z,6589
2022-08-20T10:54:11.029Z,6681
2022-08-20T10:55:27.264Z,6753
2022-08-20T10:56:43.506Z,6736
2022-08-20T10:57:59.744Z,6669
2022-08-20T10:59:15.982Z,6635
2022-08-20T11:00:32.226Z,6621
2022-08-20T11:01:48.462Z,6675
2022-08-20T11:03:04.699Z,6680
2022-08-20T11:04:19.967Z,6734
2022-08-20T11:05:36.198Z,6762
2022-08-20T11:06:52.455Z,6762
2022-08-20T11:08:08.691Z,6641
2022-08-20T11:09:24.924Z,6498
2022-08-20T11:10:41.171Z,6431
2022-08-20T11:11:57.408Z,6335
2022-08-20T11:13:13.655Z,6276
2022-08-20T11:14:29.884Z,6284
2022-08-20T11:15:46.121Z,6467
2022-08-20T11:17:02.375Z,6748
2022-08-20T11:18:18.597Z,7091
2022-08-20T11:19:34.847Z,7434
2022-08-20T11:20:50.106Z,7646
2022-08-20T11:22:06.334Z,7854
2022-08-20T11:23:22.576Z,7896
2022-08-20T11:24:38.820Z,8039
2022-08-20T11:25:55.054Z,8167
2022-08-20T11:27:11.300Z,8074
2022-08-20T11:28:27.551Z,8030
2022-08-20T11:29:43.784Z,7808
2022-08-20T11:31:00.015Z,7631
2022-08-20T11:32:16.263Z,7410
2022-08-20T11:33:32.497Z,7499
2022-08-20T11:34:48.752Z,7544
2022-08-20T11:36:04.991Z,7453
2022-08-20T11:37:20.248Z,7523
2022-08-20T11:38:36.485Z,7744
2022-08-20T11:39:51.751Z,7902
2022-08-20T11:41:07.989Z,7922
2022-08-20T11:42:24.222Z,7910
2022-08-20T11:43:40.457Z,7938
2022-08-20T11:44:56.701Z,8016
2022-08-20T11:46:12.940Z,8104
2022-08-20T11:47:29.191Z,8168
2022-08-20T11:48:45.419Z,8169
2022-08-20T11:50:01.654Z,8242
2022-08-20T11:51:17.894Z,8411
2022-08-20T11:52:34.137Z,8515
2022-08-20T11:53:50.392Z,8411
2022-08-20T11:55:06.619Z,7743
2022-08-20T11:56:21.880Z,8159
2022-08-20T11:57:38.130Z,8242
2022-08-20T11:58:54.359Z,8522
2022-08-20T12:01:26.844Z,8946
2022-08-20T12:02:43.088Z,9731
2022-08-20T12:03:59.314Z,9106
2022-08-20T12:05:15.553Z,8036
2022-08-20T12:06:31.796Z,8693
2022-08-20T12:07:48.041Z,9975
2022-08-20T12:09:04.278Z,9854
2022-08-20T12:10:20.518Z,9520
2022-08-20T12:11:36.767Z,9446
2022-08-20T12:12:52.020Z,9482
2022-08-20T12:14:08.255Z,9542
2022-08-20T12:15:24.502Z,9542
2022-08-20T12:16:40.738Z,9340
2022-08-20T12:17:56.972Z,9155
2022-08-20T12:19:13.226Z,9055
2022-08-20T12:20:29.466Z,8969
2022-08-20T12:23:01.947Z,8994
2022-08-20T12:24:18.178Z,9109
2022-08-20T12:25:34.427Z,9198
2022-08-20T12:26:50.668Z,9263
2022-08-20T12:28:06.894Z,9281
2022-08-20T12:29:23.144Z,8927
2022-08-20T12:30:39.384Z,8995
2022-08-20T12:31:54.633Z,8931
2022-08-20T12:33:10.885Z,8729
2022-08-20T12:34:27.125Z,8688
2022-08-20T12:35:43.357Z,6883
2022-08-20T12:36:59.589Z,6765
2022-08-20T12:38:15.832Z,7617
2022-08-20T12:39:32.079Z,7148
2022-08-20T12:40:48.309Z,7167
2022-08-20T12:42:04.560Z,7008
2022-08-20T12:43:20.798Z,7520
2022-08-20T12:44:37.035Z,7841
2022-08-20T12:45:53.275Z,7314
2022-08-20T12:47:09.522Z,5534
2022-08-20T12:48:24.764Z,4213
2022-08-20T12:49:41.000Z,5925
2022-08-20T12:50:57.264Z,7008
2022-08-20T12:52:13.485Z,7206
2022-08-20T12:53:29.738Z,7254
2022-08-20T12:54:45.965Z,7356
2022-08-20T12:56:02.212Z,7347
2022-08-20T12:57:18.447Z,7347
2022-08-20T12:58:34.704Z,7322
2022-08-20T12:59:50.932Z,7230
2022-08-20T13:01:07.184Z,7220
2022-08-20T13:02:23.413Z,7100
2022-08-20T13:03:39.655Z,6906
2022-08-20T13:04:54.910Z,6684
2022-08-20T13:06:11.142Z,6466
2022-08-20T13:07:27.398Z,6197
2022-08-20T13:09:59.883Z,5544
2022-08-20T13:11:16.111Z,5395
2022-08-20T13:12:32.357Z,5166
2022-08-20T13:13:48.592Z,4905
2022-08-20T13:15:04.833Z,4720
2022-08-20T13:17:37.307Z,4432
2022-08-20T13:18:53.558Z,4319
2022-08-20T13:20:09.786Z,4207
2022-08-20T13:21:26.028Z,4145
2022-08-20T13:22:41.281Z,4083
2022-08-20T13:23:57.525Z,4009
2022-08-20T13:25:13.772Z,3939
2022-08-20T13:26:30.002Z,3877
2022-08-20T13:27:46.256Z,3830
2022-08-20T13:29:02.484Z,3762
2022-08-20T13:30:18.733Z,3705
2022-08-20T13:31:34.981Z,3661
2022-08-20T13:32:51.206Z,3630
2022-08-20T13:34:07.443Z,3567
2022-08-20T13:35:23.685Z,3524
2022-08-20T13:36:39.934Z,3461
2022-08-20T13:37:56.181Z,3400
2022-08-20T13:39:12.411Z,3350
2022-08-20T13:40:27.676Z,3324
2022-08-20T13:41:43.909Z,3292
2022-08-20T13:43:00.143Z,3287
2022-08-20T13:44:16.390Z,3291
2022-08-20T13:45:32.625Z,3301
2022-08-20T13:48:05.117Z,3313
2022-08-20T13:49:21.348Z,3316
2022-08-20T13:50:37.589Z,3327
2022-08-20T13:51:53.830Z,3333
2022-08-20T13:53:10.078Z,3354
2022-08-20T13:54:26.301Z,3374
2022-08-20T13:55:42.558Z,3429
2022-08-20T13:56:57.812Z,3489
2022-08-20T13:58:14.054Z,3548
2022-08-20T13:59:30.284Z,3580
2022-08-20T14:00:46.528Z,3615
2022-08-20T14:02:02.761Z,3612
2022-08-20T14:03:19.000Z,3594
2022-08-20T14:04:35.237Z,3588
2022-08-20T14:05:51.492Z,3597
2022-08-20T14:07:07.735Z,3615
2022-08-20T14:08:23.969Z,3646
2022-08-20T14:10:56.452Z,3701
2022-08-20T14:12:12.680Z,3722
2022-08-20T14:13:27.940Z,3754
2022-08-20T14:14:44.179Z,3761
2022-08-20T14:16:00.430Z,3775
2022-08-20T14:18:32.903Z,3775
2022-08-20T14:19:49.152Z,3784
2022-08-20T14:21:05.385Z,3796
2022-08-20T14:22:21.614Z,3811
2022-08-20T14:23:37.861Z,3816
2022-08-20T14:24:54.097Z,3829
2022-08-20T14:26:10.344Z,3822
2022-08-20T14:27:26.581Z,3826
2022-08-20T14:28:42.826Z,3826
2022-08-20T14:29:58.075Z,3805
2022-08-20T14:31:14.316Z,3775
2022-08-20T14:33:46.803Z,3673
2022-08-20T14:36:18.298Z,3524
2022-08-20T14:37:33.571Z,3441
2022-08-20T14:38:48.000Z,3367
2022-08-20T14:40:05.065Z,3309
2022-08-20T14:41:21.310Z,3254
2022-08-20T14:42:37.538Z,3214
2022-08-20T14:43:53.786Z,3188
2022-08-20T14:45:10.022Z,3166
2022-08-20T14:46:26.259Z,3161
2022-08-20T14:47:42.498Z,3159
2022-08-20T14:48:58.738Z,3160
2022-08-20T14:50:14.973Z,3133
2022-08-20T14:51:30.243Z,3128
2022-08-20T14:52:46.483Z,3119
2022-08-20T14:54:01.740Z,3102
2022-08-20T14:55:17.986Z,3086
2022-08-20T14:56:34.217Z,3069
2022-08-20T14:57:50.467Z,3067
2022-08-20T15:00:22.936Z,3042
2022-08-20T15:01:39.179Z,3029
2022-08-20T15:02:55.427Z,3029
2022-08-20T15:04:11.653Z,3043
2022-08-20T15:05:27.908Z,3054
2022-08-20T15:06:44.137Z,3062
2022-08-20T15:08:00.379Z,3088
2022-08-20T15:09:16.611Z,3099
2022-08-20T15:11:48.111Z,3194
2022-08-20T15:13:03.382Z,3231
2022-08-20T15:14:18.636Z,3253
2022-08-20T15:15:34.871Z,3262
2022-08-20T15:16:51.123Z,3307
2022-08-20T15:18:07.359Z,3346
2022-08-20T15:19:23.597Z,3412
2022-08-20T15:20:39.846Z,3471
2022-08-20T15:21:56.076Z,3487
2022-08-20T15:23:12.317Z,3489
2022-08-20T15:24:28.553Z,3466
2022-08-20T15:25:44.793Z,3448
2022-08-20T15:27:00.059Z,3410
2022-08-20T15:28:15.313Z,3389
2022-08-20T15:29:31.564Z,3350
2022-08-20T15:30:47.794Z,3315
2022-08-20T15:32:04.037Z,3275
2022-08-20T15:33:20.266Z,3240
2022-08-20T15:34:36.000Z,3215
2022-08-20T15:35:52.757Z,3181
2022-08-20T15:37:09.003Z,3164
2022-08-20T15:38:25.240Z,3166
2022-08-20T15:39:41.474Z,3190
2022-08-20T15:40:57.710Z,3206
2022-08-20T15:42:13.947Z,3217
2022-08-20T15:43:30.198Z,3236
2022-08-20T15:44:45.452Z,3241
2022-08-20T15:46:01.693Z,3246
2022-08-20T15:47:17.943Z,3276
2022-08-20T15:48:34.178Z,3279
2022-08-20T15:49:50.423Z,3301
2022-08-20T15:51:06.645Z,3313
2022-08-20T15:52:22.899Z,3332
2022-08-20T15:53:39.133Z,3338
2022-08-20T15:54:54.395Z,3330
2022-08-20T15:56:10.633Z,3293
2022-08-20T15:57:26.878Z,3249
2022-08-20T15:58:43.109Z,3185
2022-08-20T15:59:59.346Z,3086
2022-08-20T16:01:15.601Z,2932
2022-08-20T16:02:31.834Z,2771
2022-08-20T16:03:48.083Z,2632
2022-08-20T16:05:04.324Z,2553
2022-08-20T16:06:20.552Z,2471
2022-08-20T16:07:36.802Z,2368
2022-08-20T16:08:53.031Z,2232
2022-08-20T16:10:09.277Z,2093
2022-08-20T16:12:41.755Z,1846
2022-08-20T16:13:57.017Z,1802
2022-08-20T16:15:13.255Z,1715
2022-08-20T16:16:29.491Z,1561
2022-08-20T16:17:45.732Z,1434
2022-08-20T16:20:18.224Z,1372
2022-08-20T16:21:34.447Z,1415
2022-08-20T16:22:50.689Z,1436
2022-08-20T16:24:06.929Z,1436
2022-08-20T16:25:23.179Z,1467
2022-08-20T16:26:39.424Z,1477
2022-08-20T16:27:55.664Z,1472
2022-08-20T16:29:11.901Z,1444
2022-08-20T16:30:27.154Z,1429
2022-08-20T16:31:43.399Z,1383
2022-08-20T16:32:59.627Z,1331
2022-08-20T16:34:15.862Z,1423
2022-08-20T16:35:32.106Z,1526
2022-08-20T16:36:48.343Z,1723
2022-08-20T16:38:04.589Z,1752
2022-08-20T16:39:20.826Z,1670
2022-08-20T16:40:37.063Z,1525
2022-08-20T16:41:53.318Z,1327
2022-08-20T16:43:09.560Z,1310
2022-08-20T16:44:25.801Z,1437
2022-08-20T16:45:42.030Z,1403
2022-08-20T16:46:58.278Z,1270
2022-08-20T16:48:14.513Z,1307
2022-08-20T16:49:30.748Z,1393
2022-08-20T16:50:46.987Z,1509
2022-08-20T16:52:02.246Z,1694
2022-08-20T16:53:18.484Z,1654
2022-08-20T16:54:34.734Z,1642
2022-08-20T16:55:50.973Z,1602
2022-08-20T16:57:07.214Z,1491
2022-08-20T16:58:23.458Z,1472
2022-08-20T16:59:39.690Z,1480
2022-08-20T17:00:55.923Z,1443
2022-08-20T17:02:12.167Z,1418
2022-08-20T17:03:28.412Z,1306
2022-08-20T17:06:00.880Z,1072
2022-08-20T17:07:17.131Z,1076
2022-08-20T17:08:32.383Z,1114
2022-08-20T17:09:48.617Z,1128
2022-08-20T17:11:04.837Z,1041
2022-08-20T17:13:37.321Z,899
2022-08-20T17:14:53.567Z,835
2022-08-20T17:16:09.806Z,814
2022-08-20T17:17:26.036Z,807
2022-08-20T17:18:42.282Z,812
2022-08-20T17:21:14.768Z,795
2022-08-20T17:23:47.246Z,815
2022-08-20T17:25:03.486Z,855
2022-08-20T17:26:19.729Z,903
2022-08-20T17:27:35.973Z,929
2022-08-20T17:28:51.224Z,943
2022-08-20T17:30:06.482Z,947
2022-08-20T17:31:22.719Z,941
2022-08-20T17:32:38.952Z,932
2022-08-20T17:33:55.191Z,932
2022-08-20T17:35:11.441Z,932
2022-08-20T17:36:27.683Z,917
2022-08-20T17:37:43.922Z,883
2022-08-20T17:39:00.153Z,853
2022-08-20T17:40:16.408Z,814
2022-08-20T17:41:32.632Z,756
2022-08-20T17:42:47.903Z,699
2022-08-20T17:44:03.155Z,652
2022-08-20T17:45:19.406Z,612
2022-08-20T17:46:35.647Z,559
2022-08-20T17:47:51.881Z,509
2022-08-20T17:49:08.119Z,467
2022-08-20T17:50:24.352Z,439
2022-08-20T17:51:40.607Z,426
2022-08-20T17:52:56.833Z,426
2022-08-20T17:54:13.083Z,408
2022-08-20T17:55:29.312Z,380
2022-08-20T17:56:45.568Z,334
2022-08-20T18:00:34.284Z,227
2022-08-20T18:01:49.542Z,195
2022-08-20T18:03:05.783Z,184
2022-08-20T18:04:21.045Z,177
2022-08-20T18:06:53.529Z,130
2022-08-20T18:09:26.005Z,100
2022-08-20T18:10:42.249Z,79
2022-08-20T18:11:58.475Z,62
2022-08-20T18:14:30.952Z,41
2022-08-20T18:15:47.199Z,34
2022-08-20T18:17:03.439Z,38
2022-08-20T18:18:19.671Z,41
2022-08-20T18:19:34.952Z,42
2022-08-20T18:20:50.209Z,41
2022-08-20T18:22:06.440Z,40